Time;durP1;ratioP1;P1;durP2;ratioP2;P2;SDS_P1;SDS_P2;PMS_P1;PMS_P2;Temp;Humidity;BMP_temperature;BMP_pressure;BME280_temperature;BME280_humidity;BME280_pressure;Samples;Min_cycle;Max_cycle;Signal;HPM_P1;HPM_P2
2021/08/08 00:00:45;;;;;;;4.18;0.75;;;15.20;99.90;;;;;;5018384;28;20025;-88
2021/08/08 00:03:11;;;;;;;5.13;1.02;;;15.20;99.90;;;;;;5018339;28;20080;-88
2021/08/08 00:05:36;;;;;;;3.65;0.98;;;15.20;99.90;;;;;;5018321;28;20056;-88
2021/08/08 00:08:02;;;;;;;7.82;0.73;;;15.10;99.90;;;;;;5018299;28;20033;-88
2021/08/08 00:10:28;;;;;;;4.32;1.00;;;15.00;99.90;;;;;;5018329;28;20443;-88
2021/08/08 00:12:54;;;;;;;9.55;0.88;;;15.10;99.90;;;;;;5018203;28;20052;-87
2021/08/08 00:15:19;;;;;;;5.57;0.88;;;15.00;99.90;;;;;;5018124;28;20121;-88
2021/08/08 00:17:45;;;;;;;7.45;1.05;;;14.90;99.90;;;;;;5018134;28;20385;-88
2021/08/08 00:20:12;;;;;;;3.75;0.73;;;14.80;99.90;;;;;;5018067;28;20049;-88
2021/08/08 00:22:38;;;;;;;3.60;0.85;;;14.90;99.90;;;;;;5018023;28;20397;-88
2021/08/08 00:25:06;;;;;;;3.10;0.90;;;14.90;99.90;;;;;;5017954;28;20079;-88
2021/08/08 00:27:33;;;;;;;6.53;0.88;;;14.80;99.90;;;;;;5017858;28;20029;-87
2021/08/08 00:29:58;;;;;;;4.30;0.82;;;14.90;99.90;;;;;;5017805;28;20481;-88
2021/08/08 00:32:24;;;;;;;6.05;0.73;;;14.90;99.90;;;;;;5017844;28;20114;-87
2021/08/08 00:34:50;;;;;;;7.90;1.10;;;14.90;99.90;;;;;;5017630;28;20025;-88
2021/08/08 00:37:15;;;;;;;6.47;0.85;;;14.80;99.90;;;;;;5035429;28;20025;-88
2021/08/08 00:39:41;;;;;;;3.22;0.98;;;14.90;99.90;;;;;;5023882;28;20053;-87
2021/08/08 00:42:07;;;;;;;8.00;0.85;;;15.00;99.90;;;;;;5055605;28;20032;-88
2021/08/08 00:44:33;;;;;;;1.20;0.68;;;15.10;99.90;;;;;;5037382;28;20056;-87
2021/08/08 00:46:58;;;;;;;6.47;0.70;;;15.10;99.90;;;;;;5037011;28;20029;-87
2021/08/08 00:49:25;;;;;;;9.13;0.88;;;15.10;99.90;;;;;;5037356;28;20115;-88
2021/08/08 00:51:51;;;;;;;3.55;0.60;;;15.00;99.90;;;;;;5055114;28;20096;-87
2021/08/08 00:54:17;;;;;;;7.43;0.95;;;15.10;99.90;;;;;;5037101;28;20135;-87
2021/08/08 00:56:43;;;;;;;6.72;0.85;;;15.00;99.90;;;;;;5054921;28;20021;-88
2021/08/08 00:59:09;;;;;;;2.75;0.70;;;14.90;99.90;;;;;;5037072;28;20028;-88
2021/08/08 01:01:49;;;;;;;1.63;0.70;;;15.00;99.90;;;;;;5037335;28;20017;-88
2021/08/08 01:04:20;;;;;;;9.45;0.80;;;15.00;99.90;;;;;;5037967;28;20017;-87
2021/08/08 01:07:18;;;;;;;6.22;0.98;;;14.90;99.90;;;;;;5039682;28;20049;-88
2021/08/08 01:09:49;;;;;;;8.20;0.88;;;14.90;99.90;;;;;;5042945;28;20094;-88
2021/08/08 01:12:14;;;;;;;8.63;0.80;;;14.80;99.90;;;;;;5037950;28;20021;-88
2021/08/08 01:14:42;;;;;;;10.30;1.00;;;14.70;99.90;;;;;;5037244;28;20051;-87
2021/08/08 01:17:09;;;;;;;6.93;0.70;;;14.80;99.90;;;;;;5054954;28;20025;-87
2021/08/08 01:20:06;;;;;;;2.88;0.90;;;14.80;99.90;;;;;;5053575;28;20021;-87
2021/08/08 01:22:32;;;;;;;7.78;1.00;;;15.00;99.90;;;;;;5035304;28;20094;-88
2021/08/08 01:25:01;;;;;;;3.70;0.80;;;15.00;99.90;;;;;;5036731;28;20027;-88
2021/08/08 01:27:31;;;;;;;7.43;0.88;;;15.00;99.90;;;;;;5036716;28;20036;-88
2021/08/08 01:29:58;;;;;;;6.38;0.80;;;15.00;99.90;;;;;;5036556;28;20488;-88
2021/08/08 01:32:24;;;;;;;5.63;0.73;;;15.00;99.90;;;;;;5054443;28;20021;-88
2021/08/08 01:34:50;;;;;;;8.45;0.85;;;14.80;99.90;;;;;;5036478;28;20032;-88
2021/08/08 01:37:18;;;;;;;8.10;1.02;;;14.80;99.90;;;;;;5036445;28;20021;-88
2021/08/08 01:39:48;;;;;;;6.25;0.88;;;14.70;99.90;;;;;;5036169;28;20037;-87
2021/08/08 01:42:16;;;;;;;7.53;0.80;;;14.60;99.90;;;;;;5036627;28;20060;-87
2021/08/08 01:44:47;;;;;;;9.00;0.82;;;14.60;99.90;;;;;;5036306;28;20067;-88
2021/08/08 01:47:16;;;;;;;7.55;0.80;;;14.60;99.90;;;;;;5036393;28;20075;-87
2021/08/08 01:49:44;;;;;;;0.98;0.60;;;14.50;99.90;;;;;;5036190;28;20492;-87
2021/08/08 01:52:10;;;;;;;7.45;0.70;;;14.50;99.90;;;;;;5054113;28;20021;-88
2021/08/08 01:54:37;;;;;;;5.40;1.02;;;14.50;99.90;;;;;;5036051;28;20064;-87
2021/08/08 01:57:04;;;;;;;1.77;0.70;;;14.50;99.90;;;;;;5036127;28;20036;-87
2021/08/08 01:59:30;;;;;;;6.63;0.95;;;14.50;99.90;;;;;;5035436;28;20025;-88
2021/08/08 02:01:55;;;;;;;5.00;0.60;;;14.60;99.90;;;;;;5035929;28;20388;-88
2021/08/08 02:04:26;;;;;;;11.40;0.90;;;14.50;99.90;;;;;;5036031;28;20484;-88
2021/08/08 02:06:52;;;;;;;6.43;1.10;;;14.40;99.90;;;;;;5035963;28;20112;-87
2021/08/08 02:09:19;;;;;;;11.48;1.17;;;14.40;99.90;;;;;;5053808;28;20477;-88
2021/08/08 02:11:45;;;;;;;10.40;1.00;;;14.40;99.90;;;;;;5036012;28;20112;-87
2021/08/08 02:14:11;;;;;;;5.95;0.68;;;14.40;99.90;;;;;;5035692;28;20116;-88
2021/08/08 02:16:38;;;;;;;6.60;1.10;;;14.30;99.90;;;;;;5035806;28;20032;-88
2021/08/08 02:19:04;;;;;;;9.80;1.38;;;14.30;99.90;;;;;;5035732;28;20059;-87
2021/08/08 02:21:29;;;;;;;13.02;0.98;;;14.60;99.90;;;;;;5035700;28;20054;-87
2021/08/08 02:23:55;;;;;;;8.35;0.90;;;14.80;99.90;;;;;;5035682;28;20489;-87
2021/08/08 02:26:21;;;;;;;13.25;1.08;;;15.10;99.90;;;;;;5035695;28;20396;-88
2021/08/08 02:28:47;;;;;;;10.77;1.30;;;14.90;99.90;;;;;;5035556;28;20031;-87
2021/08/08 02:31:13;;;;;;;6.35;0.90;;;14.80;99.90;;;;;;5035531;28;20060;-88
2021/08/08 02:33:39;;;;;;;10.15;0.73;;;14.60;99.90;;;;;;5053326;28;20021;-88
2021/08/08 02:36:04;;;;;;;7.38;0.93;;;14.40;99.90;;;;;;5053276;28;20017;-87
2021/08/08 02:38:31;;;;;;;3.15;0.88;;;14.50;99.90;;;;;;5035426;28;20048;-88
2021/08/08 02:40:56;;;;;;;4.38;0.90;;;14.40;99.90;;;;;;5035203;28;20044;-88
2021/08/08 02:43:22;;;;;;;4.63;0.80;;;14.30;99.90;;;;;;5035456;28;20025;-88
2021/08/08 02:45:50;;;;;;;6.35;0.70;;;14.30;99.90;;;;;;5035382;28;20033;-88
2021/08/08 02:48:16;;;;;;;4.18;0.63;;;14.20;99.90;;;;;;5035396;28;20033;-88
2021/08/08 02:50:42;;;;;;;9.02;0.75;;;14.30;99.90;;;;;;5035279;28;20029;-88
2021/08/08 02:53:08;;;;;;;10.48;0.90;;;14.20;99.90;;;;;;5035388;28;20029;-87
2021/08/08 02:55:34;;;;;;;5.30;0.63;;;14.20;99.90;;;;;;5035210;28;20400;-88
2021/08/08 02:58:00;;;;;;;4.00;0.77;;;14.10;99.90;;;;;;5035328;28;20025;-88
2021/08/08 03:00:25;;;;;;;4.53;0.70;;;14.30;99.90;;;;;;5035271;28;20025;-87
2021/08/08 03:02:51;;;;;;;5.60;0.68;;;14.30;99.90;;;;;;5035149;28;20135;-87
2021/08/08 03:05:17;;;;;;;3.08;0.60;;;14.50;99.90;;;;;;5035129;28;20055;-88
2021/08/08 03:07:43;;;;;;;4.50;0.65;;;14.30;99.90;;;;;;5035140;28;20021;-88
2021/08/08 03:10:10;;;;;;;2.80;0.80;;;14.30;99.90;;;;;;5036889;28;20074;-88
2021/08/08 03:12:37;;;;;;;6.65;0.95;;;14.40;99.90;;;;;;5056903;28;20025;-88
2021/08/08 03:15:03;;;;;;;5.40;0.98;;;14.50;99.90;;;;;;5056998;28;20033;-88
2021/08/08 03:17:29;;;;;;;4.47;0.80;;;14.40;99.90;;;;;;5057176;28;20025;-87
2021/08/08 03:19:55;;;;;;;8.52;1.02;;;14.40;99.90;;;;;;5042001;28;20025;-88
2021/08/08 03:22:21;;;;;;;8.68;0.93;;;14.40;99.90;;;;;;5045627;28;20017;-88
2021/08/08 03:24:46;;;;;;;7.00;0.82;;;14.40;99.90;;;;;;5041992;28;20036;-88
2021/08/08 03:27:12;;;;;;;12.32;0.90;;;14.40;99.90;;;;;;5057076;28;20100;-88
2021/08/08 03:29:38;;;;;;;13.77;0.93;;;14.30;99.90;;;;;;5056792;28;20389;-87
2021/08/08 03:32:04;;;;;;;2.58;0.77;;;14.20;99.90;;;;;;5039152;28;20021;-87
2021/08/08 03:34:30;;;;;;;7.13;1.00;;;14.40;99.90;;;;;;5038621;28;20040;-87
2021/08/08 03:36:56;;;;;;;4.18;0.82;;;14.50;99.90;;;;;;5038707;28;20060;-88
2021/08/08 03:39:25;;;;;;;5.30;0.88;;;14.50;99.90;;;;;;5036729;28;20029;-88
2021/08/08 03:41:51;;;;;;;5.85;0.70;;;14.40;99.90;;;;;;5018892;28;20029;-87
2021/08/08 03:44:17;;;;;;;3.42;0.80;;;14.40;99.90;;;;;;5018799;28;20035;-88
2021/08/08 03:46:43;;;;;;;6.25;0.93;;;14.30;99.90;;;;;;5018656;28;20033;-88
2021/08/08 03:49:11;;;;;;;6.47;0.90;;;14.30;99.90;;;;;;5019129;28;20049;-88
2021/08/08 03:51:37;;;;;;;3.53;0.95;;;14.40;99.90;;;;;;5018706;28;20080;-88
2021/08/08 03:54:03;;;;;;;10.93;0.90;;;14.50;99.90;;;;;;5018422;28;20440;-88
2021/08/08 03:56:29;;;;;;;7.93;1.02;;;14.40;99.90;;;;;;5018532;28;20469;-88
2021/08/08 03:58:55;;;;;;;11.85;1.25;;;14.30;99.90;;;;;;5018495;28;20058;-88
2021/08/08 04:01:20;;;;;;;7.20;0.80;;;14.50;99.90;;;;;;5018483;28;20025;-88
2021/08/08 04:03:46;;;;;;;6.63;1.10;;;14.50;99.90;;;;;;5018417;28;20032;-88
2021/08/08 04:06:12;;;;;;;4.00;0.70;;;14.40;99.90;;;;;;5018425;28;20029;-88
2021/08/08 04:08:38;;;;;;;5.55;0.88;;;14.10;99.90;;;;;;5018376;28;20022;-87
2021/08/08 04:11:03;;;;;;;4.03;0.70;;;14.10;99.90;;;;;;5018256;28;20021;-88
2021/08/08 04:13:29;;;;;;;6.63;1.02;;;14.10;99.90;;;;;;5018146;28;20109;-88
2021/08/08 04:15:55;;;;;;;7.07;1.10;;;14.10;99.90;;;;;;5018095;28;20465;-88
2021/08/08 04:18:21;;;;;;;3.70;0.80;;;14.20;99.90;;;;;;5018282;28;20492;-88
2021/08/08 04:20:46;;;;;;;2.17;0.75;;;14.10;99.90;;;;;;5017892;28;20067;-88
2021/08/08 04:23:12;;;;;;;7.53;0.90;;;14.20;99.90;;;;;;5035273;28;20488;-88
2021/08/08 04:25:39;;;;;;;8.15;0.90;;;14.40;99.90;;;;;;5017927;28;20029;-88
2021/08/08 04:28:06;;;;;;;12.23;1.08;;;14.30;99.90;;;;;;5017876;28;20053;-88
2021/08/08 04:30:33;;;;;;;3.03;0.85;;;14.30;99.90;;;;;;5017949;28;20029;-87
2021/08/08 04:33:00;;;;;;;7.35;1.02;;;14.20;99.90;;;;;;5017905;28;20026;-87
2021/08/08 04:35:26;;;;;;;3.40;0.95;;;14.20;99.90;;;;;;5018261;28;20033;-88
2021/08/08 04:37:52;;;;;;;7.70;1.10;;;14.10;99.90;;;;;;5018166;28;20030;-89
2021/08/08 04:40:18;;;;;;;4.00;1.05;;;14.10;99.90;;;;;;5027002;28;20045;-88
2021/08/08 04:42:44;;;;;;;7.63;1.00;;;14.20;99.90;;;;;;5037472;28;20025;-87
2021/08/08 04:45:10;;;;;;;6.20;0.90;;;14.30;99.90;;;;;;5037472;28;20179;-87
2021/08/08 04:47:35;;;;;;;2.83;0.70;;;14.30;99.90;;;;;;5037437;28;20063;-87
2021/08/08 04:50:01;;;;;;;5.18;1.00;;;14.40;99.90;;;;;;5055262;28;20017;-87
2021/08/08 04:52:37;;;;;;;2.30;0.75;;;14.40;99.90;;;;;;5037324;28;20040;-88
2021/08/08 04:55:05;;;;;;;6.80;1.10;;;14.40;99.90;;;;;;5037315;28;20079;-87
2021/08/08 04:57:30;;;;;;;6.70;0.77;;;14.40;99.90;;;;;;5037189;28;20025;-88
2021/08/08 04:59:56;;;;;;;5.07;0.98;;;14.50;99.90;;;;;;5037123;28;20017;-87
2021/08/08 05:02:22;;;;;;;1.70;0.60;;;14.50;99.90;;;;;;5038096;28;20053;-88
2021/08/08 05:04:48;;;;;;;5.55;1.00;;;14.40;99.90;;;;;;5038043;28;20396;-89
2021/08/08 05:07:14;;;;;;;4.93;0.90;;;14.70;99.90;;;;;;5037830;28;20029;-88
2021/08/08 05:09:40;;;;;;;7.72;1.02;;;14.70;99.90;;;;;;5055768;28;20048;-88
2021/08/08 05:12:09;;;;;;;3.85;0.88;;;14.80;99.90;;;;;;5038195;28;20025;-89
2021/08/08 05:14:35;;;;;;;5.72;0.80;;;14.80;99.90;;;;;;5037988;28;20025;-88
2021/08/08 05:17:01;;;;;;;9.80;1.10;;;14.70;99.90;;;;;;5037726;28;20025;-88
2021/08/08 05:19:27;;;;;;;3.45;0.73;;;14.70;99.90;;;;;;5037375;28;20047;-87
2021/08/08 05:21:53;;;;;;;4.60;1.00;;;14.80;99.90;;;;;;5037551;28;20021;-87
2021/08/08 05:24:20;;;;;;;7.18;1.08;;;14.80;99.90;;;;;;5055198;28;20040;-88
2021/08/08 05:26:46;;;;;;;3.05;0.60;;;14.80;99.90;;;;;;5037420;28;20025;-87
2021/08/08 05:29:12;;;;;;;3.28;0.80;;;14.80;99.90;;;;;;5055514;28;20048;-88
2021/08/08 05:31:39;;;;;;;3.17;0.98;;;14.80;99.90;;;;;;5037958;28;20052;-88
2021/08/08 05:34:05;;;;;;;2.95;0.90;;;14.90;99.90;;;;;;5040031;28;20165;-88
2021/08/08 05:36:31;;;;;;;3.08;0.80;;;14.90;99.90;;;;;;5040773;28;20112;-87
2021/08/08 05:38:58;;;;;;;2.05;0.68;;;14.90;99.90;;;;;;5039033;28;20021;-88
2021/08/08 05:41:24;;;;;;;2.33;0.88;;;14.70;99.90;;;;;;5037687;28;20051;-87
2021/08/08 05:43:49;;;;;;;7.95;0.90;;;14.60;99.90;;;;;;5055000;28;20071;-87
2021/08/08 05:46:15;;;;;;;4.70;0.80;;;14.50;99.90;;;;;;5037045;28;20033;-87
2021/08/08 05:48:41;;;;;;;7.38;0.90;;;14.60;99.90;;;;;;5036913;28;20052;-88
2021/08/08 05:51:07;;;;;;;6.68;0.90;;;14.70;99.90;;;;;;5037693;28;20029;-88
2021/08/08 05:53:33;;;;;;;6.90;0.95;;;14.80;99.90;;;;;;5037351;28;20433;-89
2021/08/08 05:55:59;;;;;;;3.50;0.73;;;14.80;99.90;;;;;;5036816;28;20059;-88
2021/08/08 05:58:24;;;;;;;4.00;0.85;;;14.80;99.90;;;;;;5036497;28;20107;-89
2021/08/08 06:00:50;;;;;;;4.35;0.75;;;14.90;99.90;;;;;;5037875;28;20473;-87
2021/08/08 06:03:16;;;;;;;8.68;1.00;;;14.90;99.90;;;;;;5036902;28;20469;-87
2021/08/08 06:05:43;;;;;;;5.22;0.80;;;15.00;99.90;;;;;;5036625;28;20021;-89
2021/08/08 06:08:10;;;;;;;1.15;0.68;;;15.10;99.90;;;;;;5036961;28;20021;-87
2021/08/08 06:10:37;;;;;;;4.57;0.63;;;15.30;99.90;;;;;;5054824;28;20029;-88
2021/08/08 06:13:03;;;;;;;4.25;0.95;;;15.30;99.90;;;;;;5036363;28;20074;-88
2021/08/08 06:15:29;;;;;;;5.95;0.98;;;15.40;99.90;;;;;;5036311;28;20052;-87
2021/08/08 06:17:55;;;;;;;5.85;0.85;;;15.30;99.90;;;;;;5036318;28;20091;-87
2021/08/08 06:20:21;;;;;;;5.65;0.80;;;15.40;99.90;;;;;;5036879;28;20044;-87
2021/08/08 06:22:47;;;;;;;3.35;0.95;;;15.50;99.90;;;;;;5036527;28;20021;-88
2021/08/08 06:25:13;;;;;;;4.88;0.55;;;15.60;99.90;;;;;;5054525;28;20087;-88
2021/08/08 06:27:39;;;;;;;6.63;1.10;;;15.80;99.90;;;;;;5054408;28;20465;-87
2021/08/08 06:30:05;;;;;;;3.55;0.88;;;15.80;99.90;;;;;;5036384;28;20029;-88
2021/08/08 06:32:31;;;;;;;2.30;0.77;;;15.90;99.90;;;;;;5054077;28;20515;-87
2021/08/08 06:34:57;;;;;;;8.77;0.95;;;15.90;99.90;;;;;;5036219;28;20052;-87
2021/08/08 06:37:22;;;;;;;6.80;0.85;;;15.80;99.90;;;;;;5036481;28;20526;-89
2021/08/08 06:39:48;;;;;;;5.07;0.90;;;15.70;99.90;;;;;;5036625;28;20037;-88
2021/08/08 06:42:14;;;;;;;5.00;0.80;;;15.80;99.90;;;;;;5036638;28;20028;-88
2021/08/08 06:44:40;;;;;;;6.18;0.88;;;15.80;99.90;;;;;;5035950;28;20029;-88
2021/08/08 06:47:06;;;;;;;4.25;0.70;;;15.80;99.90;;;;;;5035948;28;20113;-88
2021/08/08 06:49:32;;;;;;;4.60;0.82;;;16.00;99.90;;;;;;5036779;28;20029;-88
2021/08/08 06:51:58;;;;;;;2.58;0.50;;;16.30;99.90;;;;;;5036623;28;20111;-88
2021/08/08 06:54:24;;;;;;;3.08;0.82;;;16.40;99.90;;;;;;5036191;28;20035;-88
2021/08/08 06:56:49;;;;;;;2.90;0.80;;;16.60;99.90;;;;;;5036623;28;20021;-88
2021/08/08 06:59:15;;;;;;;8.50;0.90;;;16.90;99.90;;;;;;5036538;28;20017;-88
2021/08/08 07:01:40;;;;;;;5.57;0.60;;;17.10;99.90;;;;;;5036590;28;20369;-88
2021/08/08 07:04:06;;;;;;;6.97;0.90;;;17.30;99.90;;;;;;5036067;28;20082;-89
2021/08/08 07:06:32;;;;;;;6.22;1.00;;;17.30;99.90;;;;;;5036527;28;20040;-87
2021/08/08 07:08:57;;;;;;;2.88;0.73;;;17.20;99.90;;;;;;5036377;28;20432;-88
2021/08/08 07:11:23;;;;;;;1.80;0.75;;;17.20;99.90;;;;;;5036473;28;20162;-88
2021/08/08 07:13:49;;;;;;;8.00;1.02;;;17.30;99.90;;;;;;5036563;28;20036;-87
2021/08/08 07:16:15;;;;;;;4.50;0.65;;;17.30;99.90;;;;;;5036237;28;20053;-86
2021/08/08 07:18:43;;;;;;;5.38;0.80;;;17.20;99.90;;;;;;5035684;28;20017;-88
2021/08/08 07:21:09;;;;;;;3.22;0.98;;;17.30;99.90;;;;;;5035765;28;20131;-88
2021/08/08 07:23:35;;;;;;;5.32;0.80;;;17.50;99.90;;;;;;5054122;28;20104;-88
2021/08/08 07:26:00;;;;;;;3.78;0.90;;;17.60;99.90;;;;;;5036054;28;20114;-87
2021/08/08 07:28:27;;;;;;;4.28;1.00;;;17.60;99.90;;;;;;5036126;28;20025;-87
2021/08/08 07:30:53;;;;;;;4.32;0.90;;;17.50;99.90;;;;;;5035861;28;20032;-87
2021/08/08 07:33:19;;;;;;;3.15;0.77;;;17.50;99.90;;;;;;5054419;28;20095;-87
2021/08/08 07:35:45;;;;;;;5.80;1.00;;;17.40;99.90;;;;;;5035338;28;20072;-89
2021/08/08 07:38:11;;;;;;;3.25;0.90;;;17.50;99.90;;;;;;5036279;28;20082;-88
2021/08/08 07:40:37;;;;;;;3.67;0.90;;;17.60;99.90;;;;;;5036587;28;20442;-88
2021/08/08 07:43:04;;;;;;;4.93;1.17;;;17.50;99.90;;;;;;5055906;28;20074;-88
2021/08/08 07:45:30;;;;;;;5.18;0.88;;;17.50;99.90;;;;;;5038808;28;20037;-87
2021/08/08 07:47:55;;;;;;;4.05;0.90;;;17.50;99.90;;;;;;5039674;28;20025;-89
2021/08/08 07:50:21;;;;;;;4.30;1.05;;;17.60;99.90;;;;;;5055316;28;20051;-89
2021/08/08 07:52:47;;;;;;;3.33;1.00;;;17.70;99.90;;;;;;5035773;28;20171;-89
2021/08/08 07:55:12;;;;;;;2.03;0.70;;;17.80;99.90;;;;;;5036267;28;20033;-88
2021/08/08 07:57:38;;;;;;;3.92;0.73;;;17.90;99.90;;;;;;5038404;28;20021;-89
2021/08/08 08:00:06;;;;;;;3.03;0.80;;;18.10;99.90;;;;;;5039611;28;20439;-89
2021/08/08 08:02:31;;;;;;;4.47;0.68;;;18.10;99.90;;;;;;5039841;28;20041;-89
2021/08/08 08:04:57;;;;;;;4.10;0.93;;;18.00;99.90;;;;;;5039951;28;20496;-87
2021/08/08 08:07:23;;;;;;;5.03;0.65;;;17.90;99.90;;;;;;5039112;28;20542;-88
2021/08/08 08:09:48;;;;;;;3.85;0.70;;;18.20;99.90;;;;;;5038929;28;20464;-87
2021/08/08 08:12:14;;;;;;;3.58;0.75;;;18.30;99.90;;;;;;5039323;28;20032;-88
2021/08/08 08:14:40;;;;;;;4.47;0.90;;;18.40;99.90;;;;;;5038902;28;20044;-88
2021/08/08 08:17:06;;;;;;;4.25;0.77;;;18.50;99.90;;;;;;5039435;28;20435;-88
2021/08/08 08:19:31;;;;;;;2.22;0.77;;;18.40;99.90;;;;;;5038968;28;20045;-86
2021/08/08 08:21:57;;;;;;;5.07;0.80;;;18.40;99.90;;;;;;5038627;28;20017;-86
2021/08/08 08:24:23;;;;;;;3.20;0.68;;;18.20;99.90;;;;;;5038220;28;20078;-86
2021/08/08 08:26:49;;;;;;;3.45;0.63;;;17.90;99.90;;;;;;5038635;28;20397;-86
2021/08/08 08:29:14;;;;;;;5.93;1.00;;;17.90;99.90;;;;;;5038633;28;20468;-88
2021/08/08 08:31:40;;;;;;;3.45;0.90;;;18.10;99.90;;;;;;5039078;28;20032;-86
2021/08/08 08:34:06;;;;;;;3.85;0.73;;;18.30;99.90;;;;;;5057068;28;20072;-87
2021/08/08 08:36:32;;;;;;;2.85;0.60;;;18.50;99.90;;;;;;5038583;28;20021;-87
2021/08/08 08:38:58;;;;;;;4.47;0.80;;;18.60;99.90;;;;;;5056135;28;20531;-87
2021/08/08 08:41:30;;;;;;;3.03;0.80;;;18.80;99.90;;;;;;5037932;28;20098;-88
2021/08/08 08:43:57;;;;;;;6.43;1.05;;;19.10;99.90;;;;;;5038476;28;20029;-88
2021/08/08 08:46:24;;;;;;;3.03;0.70;;;19.40;99.90;;;;;;5038684;28;20029;-87
2021/08/08 08:48:54;;;;;;;5.00;0.80;;;19.40;99.90;;;;;;5038438;28;20021;-87
2021/08/08 08:51:42;;;;;;;1.40;0.70;;;19.40;99.90;;;;;;5038027;28;20047;-85
2021/08/08 08:54:08;;;;;;;4.07;0.80;;;19.50;99.90;;;;;;5055725;28;20071;-87
2021/08/08 08:56:34;;;;;;;2.83;0.80;;;19.50;99.90;;;;;;5038588;28;20053;-88
2021/08/08 08:59:01;;;;;;;2.13;0.63;;;19.50;99.90;;;;;;5038520;28;20048;-87
2021/08/08 09:01:26;;;;;;;5.30;1.00;;;19.50;99.90;;;;;;5037840;28;20640;-85
2021/08/08 09:03:52;;;;;;;3.20;0.70;;;19.40;99.90;;;;;;5037596;28;20092;-86
2021/08/08 09:06:18;;;;;;;2.97;0.98;;;19.50;99.90;;;;;;5037911;28;20017;-87
2021/08/08 09:08:44;;;;;;;2.72;0.73;;;19.60;99.90;;;;;;5037709;28;20021;-85
2021/08/08 09:11:10;;;;;;;5.22;0.95;;;19.60;99.90;;;;;;5037539;28;20539;-86
2021/08/08 09:13:53;;;;;;;5.47;1.00;;;19.80;99.90;;;;;;5037483;28;20027;-87
2021/08/08 09:16:21;;;;;;;6.10;0.77;;;19.90;99.90;;;;;;5055390;28;20033;-87
2021/08/08 09:18:49;;;;;;;3.92;0.70;;;20.00;99.90;;;;;;5037626;28;20020;-86
2021/08/08 09:21:15;;;;;;;5.63;0.73;;;20.10;99.90;;;;;;5055262;28;20048;-87
2021/08/08 09:23:41;;;;;;;2.15;0.80;;;20.00;99.90;;;;;;5053995;28;20049;-86
2021/08/08 09:26:08;;;;;;;6.13;0.95;;;19.80;99.90;;;;;;5037459;28;20059;-87
2021/08/08 09:28:34;;;;;;;3.53;0.57;;;19.70;99.90;;;;;;5037857;28;20025;-86
2021/08/08 09:31:00;;;;;;;2.30;0.75;;;19.90;99.90;;;;;;5037769;28;20389;-86
2021/08/08 09:33:26;;;;;;;3.22;0.80;;;20.10;99.90;;;;;;5037571;28;20029;-87
2021/08/08 09:35:55;;;;;;;4.75;1.02;;;20.30;99.90;;;;;;5037078;28;20052;-87
2021/08/08 09:38:22;;;;;;;5.68;0.65;;;20.70;99.90;;;;;;5055114;28;20380;-87
2021/08/08 09:40:59;;;;;;;4.63;0.93;;;21.00;99.90;;;;;;5036937;28;20045;-86
2021/08/08 09:43:29;;;;;;;4.35;0.73;;;21.00;99.90;;;;;;5053494;28;20048;-87
2021/08/08 09:45:55;;;;;;;1.48;0.70;;;20.80;99.90;;;;;;5037407;28;20025;-86
2021/08/08 09:48:35;;;;;;;7.35;1.33;;;20.60;99.90;;;;;;5036529;28;20021;-86
2021/08/08 09:51:08;;;;;;;3.67;1.10;;;20.30;99.90;;;;;;5037091;28;20115;-87
2021/08/08 09:53:34;;;;;;;1.67;0.80;;;19.90;99.90;;;;;;5037039;28;20053;-86
2021/08/08 09:56:00;;;;;;;1.90;0.75;;;19.70;99.90;;;;;;5037014;28;20055;-88
2021/08/08 09:58:27;;;;;;;3.53;0.85;;;19.60;99.90;;;;;;5037372;28;20021;-86
2021/08/08 10:01:00;;;;;;;3.65;1.10;;;19.50;99.90;;;;;;5037518;28;20094;-86
2021/08/08 10:03:26;;;;;;;2.70;0.90;;;19.50;99.90;;;;;;5037450;28;20041;-87
2021/08/08 10:05:55;;;;;;;4.90;0.90;;;19.90;99.90;;;;;;5037911;28;20024;-89
2021/08/08 10:08:23;;;;;;;6.07;0.70;;;20.20;99.90;;;;;;5037256;28;20071;-87
2021/08/08 10:10:54;;;;;;;2.50;0.60;;;20.10;99.90;;;;;;5054560;28;20021;-87
2021/08/08 10:13:57;;;;;;;2.92;0.88;;;20.40;99.90;;;;;;5036781;28;20461;-87
2021/08/08 10:16:23;;;;;;;3.30;0.73;;;21.00;99.90;;;;;;5036880;28;20040;-86
2021/08/08 10:18:54;;;;;;;6.63;0.73;;;21.40;99.90;;;;;;5036219;28;20021;-86
2021/08/08 10:21:21;;;;;;;1.75;0.60;;;21.80;99.90;;;;;;5036222;28;20017;-88
2021/08/08 10:23:49;;;;;;;3.35;1.10;;;22.10;99.90;;;;;;5054993;28;20534;-87
2021/08/08 10:26:15;;;;;;;5.18;1.95;;;22.40;99.90;;;;;;5054606;28;20377;-89
2021/08/08 10:28:41;;;;;;;3.70;2.33;;;22.20;99.90;;;;;;5036710;28;20464;-88
2021/08/08 10:31:09;;;;;;;5.68;1.70;;;21.90;99.90;;;;;;5036699;28;20028;-87
2021/08/08 10:33:48;;;;;;;2.40;0.82;;;21.90;99.90;;;;;;5055097;28;20033;-87
2021/08/08 10:36:24;;;;;;;4.75;1.83;;;21.90;99.90;;;;;;5054540;28;20025;-87
2021/08/08 10:38:52;;;;;;;4.60;1.25;;;22.60;99.90;;;;;;5037826;28;20079;-88
2021/08/08 10:41:18;;;;;;;2.83;0.75;;;22.90;99.90;;;;;;5036602;28;20057;-87
2021/08/08 10:43:44;;;;;;;4.00;0.80;;;22.40;99.90;;;;;;5054109;28;20029;-88
2021/08/08 10:46:13;;;;;;;3.35;0.93;;;22.80;99.90;;;;;;5036505;28;20416;-89
2021/08/08 10:48:42;;;;;;;4.53;1.10;;;23.40;99.90;;;;;;5036322;28;20083;-87
2021/08/08 10:51:21;;;;;;;3.15;0.88;;;23.40;99.90;;;;;;5036317;28;20081;-86
2021/08/08 10:54:01;;;;;;;1.60;0.65;;;23.80;99.90;;;;;;5053506;28;20150;-87
2021/08/08 10:56:40;;;;;;;5.95;0.85;;;24.10;99.90;;;;;;5053755;28;20388;-88
2021/08/08 10:59:23;;;;;;;2.30;0.70;;;24.20;99.90;;;;;;5036703;28;20053;-88
2021/08/08 11:02:09;;;;;;;3.73;0.80;;;24.10;99.90;;;;;;5055381;28;20027;-86
2021/08/08 11:04:35;;;;;;;8.77;1.38;;;24.00;99.90;;;;;;5036696;28;20029;-86
2021/08/08 11:07:06;;;;;;;3.33;0.93;;;24.00;99.90;;;;;;5035195;28;20056;-88
2021/08/08 11:09:37;;;;;;;3.40;0.85;;;23.70;99.90;;;;;;5035180;28;20088;-87
2021/08/08 11:12:04;;;;;;;5.63;1.27;;;23.10;99.90;;;;;;5053061;28;20036;-88
2021/08/08 11:14:31;;;;;;;3.33;1.10;;;22.90;99.90;;;;;;5053111;28;20472;-87
2021/08/08 11:17:07;;;;;;;4.70;0.90;;;22.50;99.90;;;;;;5034998;28;20075;-87
2021/08/08 11:19:38;;;;;;;1.67;0.70;;;22.10;99.90;;;;;;5035118;28;20152;-86
2021/08/08 11:22:12;;;;;;;2.83;0.85;;;22.50;99.90;;;;;;5035181;28;20025;-86
2021/08/08 11:24:40;;;;;;;1.77;0.60;;;22.80;99.90;;;;;;5035080;28;20033;-87
2021/08/08 11:27:07;;;;;;;1.75;0.65;;;22.40;99.90;;;;;;5035156;28;20033;-86
2021/08/08 11:29:33;;;;;;;1.45;0.73;;;22.50;99.90;;;;;;5034959;28;20029;-87
2021/08/08 11:32:01;;;;;;;3.83;0.95;;;22.60;99.90;;;;;;5038163;28;20020;-87
2021/08/08 11:34:27;;;;;;;3.72;1.02;;;22.90;99.90;;;;;;5038899;28;20484;-87
2021/08/08 11:36:56;;;;;;;2.20;0.68;;;22.80;99.90;;;;;;5039564;28;20112;-89
2021/08/08 11:39:32;;;;;;;2.60;0.50;;;23.00;99.90;;;;;;5043717;28;20021;-88
2021/08/08 11:42:08;;;;;;;2.60;0.60;;;22.90;99.90;;;;;;5021588;28;20497;-87
2021/08/08 11:44:40;;;;;;;3.38;0.65;;;22.20;99.90;;;;;;5018982;28;20116;-89
2021/08/08 11:47:07;;;;;;;2.20;0.50;;;21.20;99.90;;;;;;5018838;28;20021;-86
2021/08/08 11:49:53;;;;;;;1.50;0.55;;;20.40;99.90;;;;;;5018676;28;20485;-88
2021/08/08 11:52:20;;;;;;;3.17;0.47;;;20.20;99.90;;;;;;5018840;28;20038;-87
2021/08/08 11:54:48;;;;;;;3.15;0.40;;;19.90;99.90;;;;;;5018474;28;20432;-87
2021/08/08 11:57:27;;;;;;;1.35;0.50;;;19.80;99.90;;;;;;5018598;28;20033;-87
2021/08/08 11:59:54;;;;;;;1.77;0.60;;;20.70;99.90;;;;;;5018598;28;20477;-88
2021/08/08 12:02:20;;;;;;;2.55;0.50;;;20.80;99.90;;;;;;5018464;28;20018;-86
2021/08/08 12:04:46;;;;;;;1.75;0.60;;;20.20;99.90;;;;;;5018519;28;20095;-87
2021/08/08 12:07:12;;;;;;;3.08;0.73;;;19.60;99.90;;;;;;5019085;28;20061;-88
2021/08/08 12:09:46;;;;;;;2.97;0.70;;;19.40;99.90;;;;;;5019398;28;20025;-88
2021/08/08 12:12:12;;;;;;;2.13;0.60;;;20.10;99.90;;;;;;5037255;28;20520;-87
2021/08/08 12:14:43;;;;;;;4.90;0.60;;;20.20;99.90;;;;;;5018867;28;20112;-87
2021/08/08 12:17:18;;;;;;;3.13;0.90;;;20.10;99.90;;;;;;5018221;28;20049;-87
2021/08/08 12:19:48;;;;;;;2.65;0.60;;;20.90;99.90;;;;;;5034968;28;20056;-87
2021/08/08 12:22:22;;;;;;;2.83;0.63;;;20.60;99.90;;;;;;5036417;28;20033;-87
2021/08/08 12:24:59;;;;;;;1.63;0.70;;;21.20;99.90;;;;;;5018507;28;20017;-88
2021/08/08 12:27:39;;;;;;;1.45;0.68;;;22.40;99.90;;;;;;5037014;28;20026;-88
2021/08/08 12:30:10;;;;;;;3.42;0.85;;;23.20;99.90;;;;;;5018535;28;20454;-88
2021/08/08 12:32:38;;;;;;;3.80;0.80;;;23.80;99.90;;;;;;5019719;28;20528;-88
2021/08/08 12:35:16;;;;;;;2.10;0.70;;;24.00;99.90;;;;;;5001766;28;20033;-88
2021/08/08 12:37:43;;;;;;;3.85;0.77;;;24.70;99.90;;;;;;5018003;28;20022;-88
2021/08/08 12:40:15;;;;;;;3.30;0.80;;;24.00;99.90;;;;;;5025371;28;20045;-88
2021/08/08 12:42:41;;;;;;;3.20;0.80;;;24.50;99.90;;;;;;5054857;28;20092;-88
2021/08/08 12:45:12;;;;;;;2.83;1.00;;;24.80;99.90;;;;;;5037555;28;20595;-88
2021/08/08 12:47:40;;;;;;;4.15;0.90;;;26.40;99.90;;;;;;5038594;28;20468;-87